Kisbey, Canada
Current Conditions -  °F | °C
As of 12:00 AM on Saturday 20 Dec 2014 (Local Time) from CYEN Reporting Station
Moderate Fog Moderate Fog  
Wind Chill: 21°   Ceiling: Unl
Heat Index: 21°   Visibility: 0.25mi
Dew Point: 19°   Wind: 3mph
Humidity: 93%   Direction: 110°ESE
Pressure: 29.91"   Gusts: NA
Location:  49.63°N, 102.67°W
Report Text: CYEN 200600Z 11003KT 1/4SM FZFG VV000 M06/M07 A2991 RMK FG8SLP165
Loading
Personal Weather Stations






























Interactive Weather Map New forecast layout! Learn more

10-Day Weather Forecast

Advertisements
Track Severe Weather on mobile